sensor_id;sensor_type;location;lat;lon;timestamp;P1;durP1;ratioP1;P2;durP2;ratioP2
48859;SDS011;34679;51.436;-2.518;2022-12-10T00:01:07;65.38;;;28.20;;
48859;SDS011;34679;51.436;-2.518;2022-12-10T00:03:40;58.30;;;27.23;;
48859;SDS011;34679;51.436;-2.518;2022-12-10T00:06:08;52.70;;;26.73;;
48859;SDS011;34679;51.436;-2.518;2022-12-10T00:08:36;47.33;;;26.23;;
48859;SDS011;34679;51.436;-2.518;2022-12-10T00:11:02;57.35;;;28.25;;
48859;SDS011;34679;51.436;-2.518;2022-12-10T00:13:29;78.32;;;35.17;;
48859;SDS011;34679;51.436;-2.518;2022-12-10T00:15:55;78.47;;;34.35;;
48859;SDS011;34679;51.436;-2.518;2022-12-10T00:18:20;66.53;;;29.98;;
48859;SDS011;34679;51.436;-2.518;2022-12-10T00:20:46;54.03;;;29.17;;
48859;SDS011;34679;51.436;-2.518;2022-12-10T00:23:12;65.80;;;27.00;;
48859;SDS011;34679;51.436;-2.518;2022-12-10T00:25:38;71.95;;;27.35;;
48859;SDS011;34679;51.436;-2.518;2022-12-10T00:28:03;47.55;;;25.38;;
48859;SDS011;34679;51.436;-2.518;2022-12-10T00:30:29;57.88;;;25.50;;
48859;SDS011;34679;51.436;-2.518;2022-12-10T00:32:55;49.15;;;22.98;;
48859;SDS011;34679;51.436;-2.518;2022-12-10T00:35:20;51.05;;;23.42;;
48859;SDS011;34679;51.436;-2.518;2022-12-10T00:37:46;49.05;;;22.95;;
48859;SDS011;34679;51.436;-2.518;2022-12-10T00:40:12;46.92;;;22.88;;
48859;SDS011;34679;51.436;-2.518;2022-12-10T00:42:37;48.85;;;23.33;;
48859;SDS011;34679;51.436;-2.518;2022-12-10T00:45:03;46.10;;;22.48;;
48859;SDS011;34679;51.436;-2.518;2022-12-10T00:47:29;55.38;;;21.92;;
48859;SDS011;34679;51.436;-2.518;2022-12-10T00:49:55;42.15;;;22.10;;
48859;SDS011;34679;51.436;-2.518;2022-12-10T00:52:21;56.13;;;24.15;;
48859;SDS011;34679;51.436;-2.518;2022-12-10T00:54:47;50.72;;;25.33;;
48859;SDS011;34679;51.436;-2.518;2022-12-10T00:57:12;43.00;;;21.60;;
48859;SDS011;34679;51.436;-2.518;2022-12-10T00:59:38;47.42;;;23.40;;
48859;SDS011;34679;51.436;-2.518;2022-12-10T01:02:04;59.92;;;30.98;;
48859;SDS011;34679;51.436;-2.518;2022-12-10T01:04:29;48.60;;;25.98;;
48859;SDS011;34679;51.436;-2.518;2022-12-10T01:06:55;41.97;;;22.85;;
48859;SDS011;34679;51.436;-2.518;2022-12-10T01:09:22;42.25;;;23.20;;
48859;SDS011;34679;51.436;-2.518;2022-12-10T01:11:50;40.20;;;22.23;;
48859;SDS011;34679;51.436;-2.518;2022-12-10T01:14:19;43.70;;;21.42;;
48859;SDS011;34679;51.436;-2.518;2022-12-10T01:16:47;39.25;;;21.35;;
48859;SDS011;34679;51.436;-2.518;2022-12-10T01:19:14;44.67;;;22.38;;
48859;SDS011;34679;51.436;-2.518;2022-12-10T01:21:40;50.20;;;24.10;;
48859;SDS011;34679;51.436;-2.518;2022-12-10T01:24:06;43.28;;;22.10;;
48859;SDS011;34679;51.436;-2.518;2022-12-10T01:26:33;52.63;;;23.35;;
48859;SDS011;34679;51.436;-2.518;2022-12-10T01:28:59;52.88;;;24.35;;
48859;SDS011;34679;51.436;-2.518;2022-12-10T01:31:27;58.13;;;24.70;;
48859;SDS011;34679;51.436;-2.518;2022-12-10T01:33:57;50.95;;;24.95;;
48859;SDS011;34679;51.436;-2.518;2022-12-10T01:36:24;52.10;;;22.83;;
48859;SDS011;34679;51.436;-2.518;2022-12-10T01:38:54;49.83;;;23.25;;
48859;SDS011;34679;51.436;-2.518;2022-12-10T01:43:52;45.53;;;21.88;;
48859;SDS011;34679;51.436;-2.518;2022-12-10T01:46:34;56.13;;;24.23;;
48859;SDS011;34679;51.436;-2.518;2022-12-10T01:49:06;58.55;;;25.10;;
48859;SDS011;34679;51.436;-2.518;2022-12-10T01:51:35;42.50;;;21.77;;
48859;SDS011;34679;51.436;-2.518;2022-12-10T01:54:04;67.10;;;30.38;;
48859;SDS011;34679;51.436;-2.518;2022-12-10T01:56:35;71.88;;;28.02;;
48859;SDS011;34679;51.436;-2.518;2022-12-10T01:59:03;62.58;;;27.35;;
48859;SDS011;34679;51.436;-2.518;2022-12-10T02:02:14;54.55;;;24.98;;
48859;SDS011;34679;51.436;-2.518;2022-12-10T02:04:29;50.95;;;23.80;;
48859;SDS011;34679;51.436;-2.518;2022-12-10T02:07:06;44.13;;;22.23;;
48859;SDS011;34679;51.436;-2.518;2022-12-10T02:09:43;45.85;;;22.02;;
48859;SDS011;34679;51.436;-2.518;2022-12-10T02:12:22;46.08;;;21.95;;
48859;SDS011;34679;51.436;-2.518;2022-12-10T02:15:15;59.70;;;23.88;;
48859;SDS011;34679;51.436;-2.518;2022-12-10T02:20:14;50.60;;;20.77;;
48859;SDS011;34679;51.436;-2.518;2022-12-10T02:22:50;53.25;;;21.70;;
48859;SDS011;34679;51.436;-2.518;2022-12-10T02:25:26;41.13;;;21.25;;
48859;SDS011;34679;51.436;-2.518;2022-12-10T02:28:02;50.95;;;23.20;;
48859;SDS011;34679;51.436;-2.518;2022-12-10T02:30:48;38.85;;;20.38;;
48859;SDS011;34679;51.436;-2.518;2022-12-10T02:33:16;46.25;;;23.38;;
48859;SDS011;34679;51.436;-2.518;2022-12-10T02:35:44;42.30;;;22.40;;
48859;SDS011;34679;51.436;-2.518;2022-12-10T02:38:13;35.38;;;20.15;;
48859;SDS011;34679;51.436;-2.518;2022-12-10T02:41:00;46.28;;;20.92;;
48859;SDS011;34679;51.436;-2.518;2022-12-10T02:45:58;33.58;;;18.35;;
48859;SDS011;34679;51.436;-2.518;2022-12-10T02:48:27;39.13;;;19.38;;
48859;SDS011;34679;51.436;-2.518;2022-12-10T02:50:54;34.15;;;18.80;;
48859;SDS011;34679;51.436;-2.518;2022-12-10T02:53:20;33.92;;;19.02;;
48859;SDS011;34679;51.436;-2.518;2022-12-10T03:01:42;32.40;;;16.70;;
48859;SDS011;34679;51.436;-2.518;2022-12-10T03:04:29;42.42;;;18.20;;
48859;SDS011;34679;51.436;-2.518;2022-12-10T03:07:02;41.10;;;18.15;;
48859;SDS011;34679;51.436;-2.518;2022-12-10T03:09:35;31.83;;;17.58;;
48859;SDS011;34679;51.436;-2.518;2022-12-10T03:12:11;36.53;;;17.48;;
48859;SDS011;34679;51.436;-2.518;2022-12-10T03:15:04;31.70;;;15.45;;
48859;SDS011;34679;51.436;-2.518;2022-12-10T03:17:33;26.30;;;14.90;;
48859;SDS011;34679;51.436;-2.518;2022-12-10T03:20:01;30.83;;;17.45;;
48859;SDS011;34679;51.436;-2.518;2022-12-10T03:22:28;25.38;;;15.32;;
48859;SDS011;34679;51.436;-2.518;2022-12-10T03:24:57;36.42;;;17.10;;
48859;SDS011;34679;51.436;-2.518;2022-12-10T03:27:23;26.30;;;16.48;;
48859;SDS011;34679;51.436;-2.518;2022-12-10T03:29:51;32.83;;;16.75;;
48859;SDS011;34679;51.436;-2.518;2022-12-10T03:32:20;31.77;;;16.40;;
48859;SDS011;34679;51.436;-2.518;2022-12-10T03:34:47;39.72;;;18.75;;
48859;SDS011;34679;51.436;-2.518;2022-12-10T03:37:16;32.75;;;16.83;;
48859;SDS011;34679;51.436;-2.518;2022-12-10T03:39:43;25.95;;;15.30;;
48859;SDS011;34679;51.436;-2.518;2022-12-10T03:42:09;32.63;;;15.70;;
48859;SDS011;34679;51.436;-2.518;2022-12-10T03:44:36;26.85;;;16.95;;
48859;SDS011;34679;51.436;-2.518;2022-12-10T03:47:04;31.23;;;15.18;;
48859;SDS011;34679;51.436;-2.518;2022-12-10T03:49:31;29.73;;;15.32;;
48859;SDS011;34679;51.436;-2.518;2022-12-10T03:51:57;30.92;;;15.50;;
48859;SDS011;34679;51.436;-2.518;2022-12-10T03:54:23;32.10;;;15.70;;
48859;SDS011;34679;51.436;-2.518;2022-12-10T03:56:49;36.85;;;19.60;;
48859;SDS011;34679;51.436;-2.518;2022-12-10T03:59:15;29.00;;;16.73;;
48859;SDS011;34679;51.436;-2.518;2022-12-10T04:01:41;22.80;;;13.90;;
48859;SDS011;34679;51.436;-2.518;2022-12-10T04:04:07;26.15;;;14.63;;
48859;SDS011;34679;51.436;-2.518;2022-12-10T04:06:33;29.65;;;14.40;;
48859;SDS011;34679;51.436;-2.518;2022-12-10T04:08:59;23.73;;;13.95;;
48859;SDS011;34679;51.436;-2.518;2022-12-10T04:11:25;21.15;;;12.40;;
48859;SDS011;34679;51.436;-2.518;2022-12-10T04:13:51;21.30;;;12.13;;
48859;SDS011;34679;51.436;-2.518;2022-12-10T04:16:36;22.17;;;13.77;;
48859;SDS011;34679;51.436;-2.518;2022-12-10T04:19:06;22.63;;;11.80;;
48859;SDS011;34679;51.436;-2.518;2022-12-10T04:21:35;25.67;;;13.38;;
48859;SDS011;34679;51.436;-2.518;2022-12-10T04:24:21;24.00;;;13.57;;
48859;SDS011;34679;51.436;-2.518;2022-12-10T04:27:26;27.27;;;13.35;;
48859;SDS011;34679;51.436;-2.518;2022-12-10T04:29:54;29.70;;;14.63;;
48859;SDS011;34679;51.436;-2.518;2022-12-10T04:32:21;32.00;;;17.40;;
48859;SDS011;34679;51.436;-2.518;2022-12-10T04:34:48;34.67;;;17.80;;
48859;SDS011;34679;51.436;-2.518;2022-12-10T04:37:14;34.97;;;18.33;;
48859;SDS011;34679;51.436;-2.518;2022-12-10T04:39:40;30.90;;;17.02;;
48859;SDS011;34679;51.436;-2.518;2022-12-10T04:42:06;38.35;;;17.55;;
48859;SDS011;34679;51.436;-2.518;2022-12-10T04:44:33;33.72;;;16.63;;
48859;SDS011;34679;51.436;-2.518;2022-12-10T04:46:59;30.13;;;17.83;;
48859;SDS011;34679;51.436;-2.518;2022-12-10T04:49:25;36.15;;;17.65;;
48859;SDS011;34679;51.436;-2.518;2022-12-10T04:51:51;34.88;;;18.85;;
48859;SDS011;34679;51.436;-2.518;2022-12-10T04:54:18;32.40;;;18.38;;
48859;SDS011;34679;51.436;-2.518;2022-12-10T04:56:44;31.20;;;18.05;;
48859;SDS011;34679;51.436;-2.518;2022-12-10T04:59:10;36.28;;;18.33;;
48859;SDS011;34679;51.436;-2.518;2022-12-10T05:01:36;34.92;;;16.58;;
48859;SDS011;34679;51.436;-2.518;2022-12-10T05:04:04;29.70;;;16.02;;
48859;SDS011;34679;51.436;-2.518;2022-12-10T05:06:31;25.50;;;14.98;;
48859;SDS011;34679;51.436;-2.518;2022-12-10T05:08:57;26.95;;;15.65;;
48859;SDS011;34679;51.436;-2.518;2022-12-10T05:11:24;27.92;;;14.07;;
48859;SDS011;34679;51.436;-2.518;2022-12-10T05:13:54;33.58;;;15.43;;
48859;SDS011;34679;51.436;-2.518;2022-12-10T05:16:21;31.92;;;15.32;;
48859;SDS011;34679;51.436;-2.518;2022-12-10T05:18:48;28.80;;;14.90;;
48859;SDS011;34679;51.436;-2.518;2022-12-10T05:21:15;28.10;;;14.88;;
48859;SDS011;34679;51.436;-2.518;2022-12-10T05:23:43;28.27;;;14.82;;
48859;SDS011;34679;51.436;-2.518;2022-12-10T05:26:11;34.80;;;14.57;;
48859;SDS011;34679;51.436;-2.518;2022-12-10T05:28:43;29.05;;;14.02;;
48859;SDS011;34679;51.436;-2.518;2022-12-10T05:31:18;24.48;;;13.05;;
48859;SDS011;34679;51.436;-2.518;2022-12-10T05:33:43;27.40;;;13.52;;
48859;SDS011;34679;51.436;-2.518;2022-12-10T05:36:10;26.95;;;13.20;;
48859;SDS011;34679;51.436;-2.518;2022-12-10T05:38:37;22.13;;;13.00;;
48859;SDS011;34679;51.436;-2.518;2022-12-10T05:41:04;22.65;;;13.05;;
48859;SDS011;34679;51.436;-2.518;2022-12-10T05:43:31;22.25;;;11.80;;
48859;SDS011;34679;51.436;-2.518;2022-12-10T05:46:01;20.88;;;13.13;;
48859;SDS011;34679;51.436;-2.518;2022-12-10T05:48:28;22.23;;;12.15;;
48859;SDS011;34679;51.436;-2.518;2022-12-10T05:50:53;25.88;;;12.55;;
48859;SDS011;34679;51.436;-2.518;2022-12-10T05:53:19;27.60;;;13.52;;
48859;SDS011;34679;51.436;-2.518;2022-12-10T05:55:45;25.70;;;13.10;;
48859;SDS011;34679;51.436;-2.518;2022-12-10T05:58:11;24.58;;;12.23;;
48859;SDS011;34679;51.436;-2.518;2022-12-10T06:00:38;23.10;;;11.50;;
48859;SDS011;34679;51.436;-2.518;2022-12-10T06:03:05;19.13;;;11.52;;
48859;SDS011;34679;51.436;-2.518;2022-12-10T06:05:38;20.98;;;11.32;;
48859;SDS011;34679;51.436;-2.518;2022-12-10T06:08:05;21.20;;;11.48;;
48859;SDS011;34679;51.436;-2.518;2022-12-10T06:10:33;20.95;;;10.80;;
48859;SDS011;34679;51.436;-2.518;2022-12-10T06:13:00;21.48;;;10.85;;
48859;SDS011;34679;51.436;-2.518;2022-12-10T06:15:26;20.58;;;10.30;;
48859;SDS011;34679;51.436;-2.518;2022-12-10T06:17:53;21.90;;;11.18;;
48859;SDS011;34679;51.436;-2.518;2022-12-10T06:20:23;23.50;;;10.00;;
48859;SDS011;34679;51.436;-2.518;2022-12-10T06:22:49;17.80;;;10.85;;
48859;SDS011;34679;51.436;-2.518;2022-12-10T06:25:15;19.83;;;10.15;;
48859;SDS011;34679;51.436;-2.518;2022-12-10T06:27:40;18.50;;;10.23;;
48859;SDS011;34679;51.436;-2.518;2022-12-10T06:30:06;17.85;;;9.65;;
48859;SDS011;34679;51.436;-2.518;2022-12-10T06:32:32;17.92;;;10.65;;
48859;SDS011;34679;51.436;-2.518;2022-12-10T06:34:58;18.63;;;11.10;;
48859;SDS011;34679;51.436;-2.518;2022-12-10T06:37:24;21.67;;;10.43;;
48859;SDS011;34679;51.436;-2.518;2022-12-10T06:39:50;14.13;;;9.63;;
48859;SDS011;34679;51.436;-2.518;2022-12-10T06:42:17;15.95;;;9.98;;
48859;SDS011;34679;51.436;-2.518;2022-12-10T06:44:43;20.33;;;11.13;;
48859;SDS011;34679;51.436;-2.518;2022-12-10T06:47:09;16.55;;;10.07;;
48859;SDS011;34679;51.436;-2.518;2022-12-10T06:49:35;20.92;;;11.18;;
48859;SDS011;34679;51.436;-2.518;2022-12-10T06:52:01;22.23;;;10.48;;
48859;SDS011;34679;51.436;-2.518;2022-12-10T06:54:27;22.15;;;12.02;;
48859;SDS011;34679;51.436;-2.518;2022-12-10T06:56:52;25.85;;;10.85;;
48859;SDS011;34679;51.436;-2.518;2022-12-10T06:59:18;25.80;;;11.43;;
48859;SDS011;34679;51.436;-2.518;2022-12-10T07:01:45;19.55;;;10.00;;
48859;SDS011;34679;51.436;-2.518;2022-12-10T07:04:11;16.83;;;10.25;;
48859;SDS011;34679;51.436;-2.518;2022-12-10T07:06:37;16.65;;;9.77;;
48859;SDS011;34679;51.436;-2.518;2022-12-10T07:09:03;16.83;;;9.20;;
48859;SDS011;34679;51.436;-2.518;2022-12-10T07:11:29;15.55;;;8.50;;
48859;SDS011;34679;51.436;-2.518;2022-12-10T07:13:56;17.05;;;9.40;;
48859;SDS011;34679;51.436;-2.518;2022-12-10T07:16:25;15.02;;;9.10;;
48859;SDS011;34679;51.436;-2.518;2022-12-10T07:18:53;16.98;;;10.13;;
48859;SDS011;34679;51.436;-2.518;2022-12-10T07:21:21;15.77;;;9.10;;
48859;SDS011;34679;51.436;-2.518;2022-12-10T07:23:56;22.27;;;9.75;;
48859;SDS011;34679;51.436;-2.518;2022-12-10T07:26:30;20.80;;;9.75;;
48859;SDS011;34679;51.436;-2.518;2022-12-10T07:29:00;16.38;;;9.32;;
48859;SDS011;34679;51.436;-2.518;2022-12-10T07:31:27;16.83;;;8.80;;
48859;SDS011;34679;51.436;-2.518;2022-12-10T07:33:53;17.48;;;9.38;;
48859;SDS011;34679;51.436;-2.518;2022-12-10T07:36:22;19.88;;;9.25;;
48859;SDS011;34679;51.436;-2.518;2022-12-10T07:38:48;20.05;;;9.68;;
48859;SDS011;34679;51.436;-2.518;2022-12-10T07:41:15;18.38;;;9.27;;
48859;SDS011;34679;51.436;-2.518;2022-12-10T07:43:42;21.55;;;9.63;;
48859;SDS011;34679;51.436;-2.518;2022-12-10T07:48:39;20.45;;;8.73;;
48859;SDS011;34679;51.436;-2.518;2022-12-10T07:51:06;13.35;;;8.27;;
48859;SDS011;34679;51.436;-2.518;2022-12-10T07:53:32;14.70;;;8.80;;
48859;SDS011;34679;51.436;-2.518;2022-12-10T07:55:58;16.70;;;9.25;;
48859;SDS011;34679;51.436;-2.518;2022-12-10T07:58:23;12.32;;;7.90;;
48859;SDS011;34679;51.436;-2.518;2022-12-10T08:00:49;14.65;;;8.27;;
48859;SDS011;34679;51.436;-2.518;2022-12-10T08:03:15;13.02;;;7.95;;
48859;SDS011;34679;51.436;-2.518;2022-12-10T08:05:41;12.57;;;8.73;;
48859;SDS011;34679;51.436;-2.518;2022-12-10T08:08:07;18.10;;;8.93;;
48859;SDS011;34679;51.436;-2.518;2022-12-10T08:10:33;14.55;;;8.70;;
48859;SDS011;34679;51.436;-2.518;2022-12-10T08:13:00;13.98;;;9.43;;
48859;SDS011;34679;51.436;-2.518;2022-12-10T08:15:25;15.98;;;8.45;;
48859;SDS011;34679;51.436;-2.518;2022-12-10T08:17:53;24.38;;;9.32;;
48859;SDS011;34679;51.436;-2.518;2022-12-10T08:20:19;17.75;;;10.18;;
48859;SDS011;34679;51.436;-2.518;2022-12-10T08:22:45;20.35;;;10.25;;
48859;SDS011;34679;51.436;-2.518;2022-12-10T08:25:10;22.40;;;10.52;;
48859;SDS011;34679;51.436;-2.518;2022-12-10T08:27:37;18.80;;;9.68;;
48859;SDS011;34679;51.436;-2.518;2022-12-10T08:30:03;15.13;;;8.75;;
48859;SDS011;34679;51.436;-2.518;2022-12-10T08:32:29;16.05;;;8.00;;
48859;SDS011;34679;51.436;-2.518;2022-12-10T08:34:54;17.55;;;7.45;;
48859;SDS011;34679;51.436;-2.518;2022-12-10T08:37:20;9.63;;;7.30;;
48859;SDS011;34679;51.436;-2.518;2022-12-10T08:39:46;13.10;;;7.57;;
48859;SDS011;34679;51.436;-2.518;2022-12-10T08:42:12;13.23;;;6.95;;
48859;SDS011;34679;51.436;-2.518;2022-12-10T08:44:37;15.98;;;6.65;;
48859;SDS011;34679;51.436;-2.518;2022-12-10T08:47:03;15.85;;;7.38;;
48859;SDS011;34679;51.436;-2.518;2022-12-10T08:49:30;14.65;;;6.53;;
48859;SDS011;34679;51.436;-2.518;2022-12-10T08:51:56;10.05;;;6.18;;
48859;SDS011;34679;51.436;-2.518;2022-12-10T08:54:21;8.88;;;6.38;;
48859;SDS011;34679;51.436;-2.518;2022-12-10T08:56:47;9.43;;;6.22;;
48859;SDS011;34679;51.436;-2.518;2022-12-10T08:59:12;9.35;;;6.00;;
48859;SDS011;34679;51.436;-2.518;2022-12-10T09:01:38;13.48;;;8.02;;
48859;SDS011;34679;51.436;-2.518;2022-12-10T09:04:04;10.07;;;6.18;;
48859;SDS011;34679;51.436;-2.518;2022-12-10T09:06:30;11.18;;;5.90;;
48859;SDS011;34679;51.436;-2.518;2022-12-10T09:08:56;10.40;;;7.10;;
48859;SDS011;34679;51.436;-2.518;2022-12-10T09:11:23;13.73;;;8.35;;
48859;SDS011;34679;51.436;-2.518;2022-12-10T09:13:54;12.68;;;8.50;;
48859;SDS011;34679;51.436;-2.518;2022-12-10T09:16:20;15.25;;;8.35;;
48859;SDS011;34679;51.436;-2.518;2022-12-10T09:18:46;15.63;;;9.15;;
48859;SDS011;34679;51.436;-2.518;2022-12-10T09:21:13;18.52;;;9.65;;
48859;SDS011;34679;51.436;-2.518;2022-12-10T09:23:40;19.23;;;10.70;;
48859;SDS011;34679;51.436;-2.518;2022-12-10T09:26:07;15.98;;;9.75;;
48859;SDS011;34679;51.436;-2.518;2022-12-10T09:28:34;14.88;;;9.43;;
48859;SDS011;34679;51.436;-2.518;2022-12-10T09:31:01;20.52;;;9.98;;
48859;SDS011;34679;51.436;-2.518;2022-12-10T09:33:29;16.30;;;10.15;;
48859;SDS011;34679;51.436;-2.518;2022-12-10T09:35:55;12.48;;;8.40;;
48859;SDS011;34679;51.436;-2.518;2022-12-10T09:38:22;12.90;;;7.97;;
48859;SDS011;34679;51.436;-2.518;2022-12-10T09:40:54;12.82;;;8.68;;
48859;SDS011;34679;51.436;-2.518;2022-12-10T09:43:23;19.08;;;8.43;;
48859;SDS011;34679;51.436;-2.518;2022-12-10T09:51:55;20.48;;;8.43;;
48859;SDS011;34679;51.436;-2.518;2022-12-10T09:54:29;15.55;;;8.15;;
48859;SDS011;34679;51.436;-2.518;2022-12-10T09:57:20;15.57;;;8.77;;
48859;SDS011;34679;51.436;-2.518;2022-12-10T10:00:18;13.20;;;7.60;;
48859;SDS011;34679;51.436;-2.518;2022-12-10T10:02:50;13.40;;;8.00;;
48859;SDS011;34679;51.436;-2.518;2022-12-10T10:05:21;10.75;;;6.40;;
48859;SDS011;34679;51.436;-2.518;2022-12-10T10:07:53;8.50;;;6.10;;
48859;SDS011;34679;51.436;-2.518;2022-12-10T10:10:25;9.98;;;6.50;;
48859;SDS011;34679;51.436;-2.518;2022-12-10T10:18:49;10.63;;;5.47;;
48859;SDS011;34679;51.436;-2.518;2022-12-10T10:24:09;7.28;;;5.03;;
48859;SDS011;34679;51.436;-2.518;2022-12-10T10:26:39;11.35;;;7.28;;
48859;SDS011;34679;51.436;-2.518;2022-12-10T10:29:06;15.98;;;10.35;;
48859;SDS011;34679;51.436;-2.518;2022-12-10T10:31:35;79.00;;;15.18;;
48859;SDS011;34679;51.436;-2.518;2022-12-10T10:34:05;22.05;;;13.48;;
48859;SDS011;34679;51.436;-2.518;2022-12-10T10:36:37;22.10;;;11.32;;
48859;SDS011;34679;51.436;-2.518;2022-12-10T10:39:37;17.58;;;10.93;;
48859;SDS011;34679;51.436;-2.518;2022-12-10T10:41:59;16.58;;;9.45;;
48859;SDS011;34679;51.436;-2.518;2022-12-10T10:44:34;16.70;;;9.95;;
48859;SDS011;34679;51.436;-2.518;2022-12-10T10:47:01;10.98;;;7.90;;
48859;SDS011;34679;51.436;-2.518;2022-12-10T10:49:31;13.45;;;7.28;;
48859;SDS011;34679;51.436;-2.518;2022-12-10T10:51:59;9.85;;;7.75;;
48859;SDS011;34679;51.436;-2.518;2022-12-10T10:57:17;8.65;;;6.32;;
48859;SDS011;34679;51.436;-2.518;2022-12-10T10:59:46;9.15;;;7.00;;
48859;SDS011;34679;51.436;-2.518;2022-12-10T11:04:46;11.90;;;6.20;;
48859;SDS011;34679;51.436;-2.518;2022-12-10T11:07:22;8.82;;;6.10;;
48859;SDS011;34679;51.436;-2.518;2022-12-10T11:09:48;7.85;;;6.55;;
48859;SDS011;34679;51.436;-2.518;2022-12-10T11:15:01;37.08;;;9.07;;
48859;SDS011;34679;51.436;-2.518;2022-12-10T11:17:28;12.00;;;7.80;;
48859;SDS011;34679;51.436;-2.518;2022-12-10T11:20:01;12.95;;;7.80;;
48859;SDS011;34679;51.436;-2.518;2022-12-10T11:22:48;11.85;;;7.95;;
48859;SDS011;34679;51.436;-2.518;2022-12-10T11:25:29;14.43;;;7.38;;
48859;SDS011;34679;51.436;-2.518;2022-12-10T11:42:40;7.88;;;5.60;;
48859;SDS011;34679;51.436;-2.518;2022-12-10T11:52:55;3.00;;;2.10;;
48859;SDS011;34679;51.436;-2.518;2022-12-10T12:00:59;2.83;;;1.50;;
48859;SDS011;34679;51.436;-2.518;2022-12-10T12:06:25;4.50;;;2.00;;
48859;SDS011;34679;51.436;-2.518;2022-12-10T12:09:15;2.45;;;1.65;;
48859;SDS011;34679;51.436;-2.518;2022-12-10T12:14:54;2.00;;;1.30;;
48859;SDS011;34679;51.436;-2.518;2022-12-10T12:17:30;2.22;;;1.30;;
48859;SDS011;34679;51.436;-2.518;2022-12-10T12:22:46;0.95;;;0.90;;
48859;SDS011;34679;51.436;-2.518;2022-12-10T12:25:22;2.80;;;1.08;;
48859;SDS011;34679;51.436;-2.518;2022-12-10T12:28:20;0.93;;;0.85;;
48859;SDS011;34679;51.436;-2.518;2022-12-10T12:30:47;2.40;;;1.40;;
48859;SDS011;34679;51.436;-2.518;2022-12-10T12:33:20;2.15;;;1.52;;
48859;SDS011;34679;51.436;-2.518;2022-12-10T12:35:56;1.50;;;1.08;;
48859;SDS011;34679;51.436;-2.518;2022-12-10T12:38:35;1.60;;;1.23;;
48859;SDS011;34679;51.436;-2.518;2022-12-10T12:49:56;1.98;;;1.00;;
48859;SDS011;34679;51.436;-2.518;2022-12-10T12:52:26;2.92;;;1.35;;
48859;SDS011;34679;51.436;-2.518;2022-12-10T12:54:55;3.85;;;0.95;;
48859;SDS011;34679;51.436;-2.518;2022-12-10T12:57:30;1.27;;;1.05;;
48859;SDS011;34679;51.436;-2.518;2022-12-10T13:00:06;1.13;;;0.80;;
48859;SDS011;34679;51.436;-2.518;2022-12-10T13:05:37;3.50;;;1.40;;
48859;SDS011;34679;51.436;-2.518;2022-12-10T13:10:52;3.10;;;1.30;;
48859;SDS011;34679;51.436;-2.518;2022-12-10T13:13:29;1.10;;;1.00;;
48859;SDS011;34679;51.436;-2.518;2022-12-10T13:16:32;1.60;;;1.10;;
48859;SDS011;34679;51.436;-2.518;2022-12-10T13:22:05;4.30;;;1.33;;
48859;SDS011;34679;51.436;-2.518;2022-12-10T13:43:49;1.45;;;0.82;;
48859;SDS011;34679;51.436;-2.518;2022-12-10T13:46:50;2.78;;;1.10;;
48859;SDS011;34679;51.436;-2.518;2022-12-10T13:49:18;2.08;;;1.02;;
48859;SDS011;34679;51.436;-2.518;2022-12-10T13:57:50;4.15;;;2.25;;
48859;SDS011;34679;51.436;-2.518;2022-12-10T14:00:22;11.23;;;5.43;;
48859;SDS011;34679;51.436;-2.518;2022-12-10T14:08:22;2.10;;;1.00;;
48859;SDS011;34679;51.436;-2.518;2022-12-10T14:10:52;1.00;;;0.90;;
48859;SDS011;34679;51.436;-2.518;2022-12-10T14:13:19;1.15;;;1.05;;
48859;SDS011;34679;51.436;-2.518;2022-12-10T14:15:54;2.55;;;1.00;;
48859;SDS011;34679;51.436;-2.518;2022-12-10T14:18:23;15.55;;;5.95;;
48859;SDS011;34679;51.436;-2.518;2022-12-10T14:20:50;7.07;;;2.72;;
48859;SDS011;34679;51.436;-2.518;2022-12-10T14:26:06;4.40;;;1.38;;
48859;SDS011;34679;51.436;-2.518;2022-12-10T14:28:40;3.67;;;1.30;;
48859;SDS011;34679;51.436;-2.518;2022-12-10T14:31:16;2.15;;;1.42;;
48859;SDS011;34679;51.436;-2.518;2022-12-10T14:33:49;1.20;;;0.90;;
48859;SDS011;34679;51.436;-2.518;2022-12-10T14:36:17;1.05;;;1.00;;
48859;SDS011;34679;51.436;-2.518;2022-12-10T14:39:10;3.53;;;1.33;;
48859;SDS011;34679;51.436;-2.518;2022-12-10T14:41:41;2.90;;;2.17;;
48859;SDS011;34679;51.436;-2.518;2022-12-10T14:44:08;2.08;;;1.42;;
48859;SDS011;34679;51.436;-2.518;2022-12-10T14:46:38;2.08;;;1.20;;
48859;SDS011;34679;51.436;-2.518;2022-12-10T14:49:04;1.20;;;1.10;;
48859;SDS011;34679;51.436;-2.518;2022-12-10T14:51:38;5.93;;;1.20;;
48859;SDS011;34679;51.436;-2.518;2022-12-10T14:54:04;0.95;;;0.80;;
48859;SDS011;34679;51.436;-2.518;2022-12-10T14:57:02;2.92;;;1.38;;
48859;SDS011;34679;51.436;-2.518;2022-12-10T15:02:34;5.55;;;1.48;;
48859;SDS011;34679;51.436;-2.518;2022-12-10T15:05:03;1.40;;;0.95;;
48859;SDS011;34679;51.436;-2.518;2022-12-10T15:07:37;1.67;;;1.30;;
48859;SDS011;34679;51.436;-2.518;2022-12-10T15:10:06;3.15;;;1.50;;
48859;SDS011;34679;51.436;-2.518;2022-12-10T15:12:41;6.88;;;2.20;;
48859;SDS011;34679;51.436;-2.518;2022-12-10T15:15:16;5.13;;;2.30;;
48859;SDS011;34679;51.436;-2.518;2022-12-10T15:17:58;4.22;;;2.40;;
48859;SDS011;34679;51.436;-2.518;2022-12-10T15:20:30;5.03;;;2.47;;
48859;SDS011;34679;51.436;-2.518;2022-12-10T15:23:17;5.70;;;2.83;;
48859;SDS011;34679;51.436;-2.518;2022-12-10T15:25:44;4.93;;;3.10;;
48859;SDS011;34679;51.436;-2.518;2022-12-10T15:28:28;6.18;;;2.90;;
48859;SDS011;34679;51.436;-2.518;2022-12-10T15:33:50;3.58;;;3.28;;
48859;SDS011;34679;51.436;-2.518;2022-12-10T15:36:37;5.93;;;3.42;;
48859;SDS011;34679;51.436;-2.518;2022-12-10T15:42:08;6.47;;;4.43;;
48859;SDS011;34679;51.436;-2.518;2022-12-10T15:47:10;5.07;;;4.13;;
48859;SDS011;34679;51.436;-2.518;2022-12-10T15:49:49;6.35;;;3.35;;
48859;SDS011;34679;51.436;-2.518;2022-12-10T15:52:21;4.88;;;3.72;;
48859;SDS011;34679;51.436;-2.518;2022-12-10T15:54:50;8.07;;;4.30;;
48859;SDS011;34679;51.436;-2.518;2022-12-10T15:57:24;11.20;;;8.43;;
48859;SDS011;34679;51.436;-2.518;2022-12-10T15:59:52;5.43;;;4.40;;
48859;SDS011;34679;51.436;-2.518;2022-12-10T16:05:47;10.90;;;4.90;;
48859;SDS011;34679;51.436;-2.518;2022-12-10T16:07:49;5.72;;;5.03;;
48859;SDS011;34679;51.436;-2.518;2022-12-10T16:10:17;8.98;;;5.50;;
48859;SDS011;34679;51.436;-2.518;2022-12-10T16:12:45;11.40;;;7.70;;
48859;SDS011;34679;51.436;-2.518;2022-12-10T16:15:20;10.80;;;6.45;;
48859;SDS011;34679;51.436;-2.518;2022-12-10T16:17:49;12.55;;;6.75;;
48859;SDS011;34679;51.436;-2.518;2022-12-10T16:20:26;16.15;;;8.25;;
48859;SDS011;34679;51.436;-2.518;2022-12-10T16:22:54;13.80;;;8.82;;
48859;SDS011;34679;51.436;-2.518;2022-12-10T16:25:21;13.82;;;6.93;;
48859;SDS011;34679;51.436;-2.518;2022-12-10T16:27:47;11.82;;;7.55;;
48859;SDS011;34679;51.436;-2.518;2022-12-10T16:33:01;8.45;;;7.03;;
48859;SDS011;34679;51.436;-2.518;2022-12-10T16:35:27;10.88;;;7.05;;
48859;SDS011;34679;51.436;-2.518;2022-12-10T16:37:53;13.02;;;7.90;;
48859;SDS011;34679;51.436;-2.518;2022-12-10T16:40:23;14.18;;;8.13;;
48859;SDS011;34679;51.436;-2.518;2022-12-10T16:42:50;17.88;;;9.55;;
48859;SDS011;34679;51.436;-2.518;2022-12-10T16:45:21;15.02;;;10.27;;
48859;SDS011;34679;51.436;-2.518;2022-12-10T16:47:54;13.43;;;9.38;;
48859;SDS011;34679;51.436;-2.518;2022-12-10T16:50:20;17.13;;;10.48;;
48859;SDS011;34679;51.436;-2.518;2022-12-10T16:52:47;15.85;;;8.95;;
48859;SDS011;34679;51.436;-2.518;2022-12-10T16:55:14;16.15;;;9.05;;
48859;SDS011;34679;51.436;-2.518;2022-12-10T16:57:41;19.27;;;10.55;;